Time;durP1;ratioP1;P1;durP2;ratioP2;P2;SDS_P1;SDS_P2;PMS_P1;PMS_P2;Temp;Humidity;BMP_temperature;BMP_pressure;BME280_temperature;BME280_humidity;BME280_pressure;Samples;Min_cycle;Max_cycle;Signal;HPM_P1;HPM_P2
2022/04/03 00:01:17;;;;;;;4.00;3.00;;;;;;;;;;4961345;28;20237;-73
2022/04/03 00:03:43;;;;;;;4.57;3.50;;;;;;;;;;4962209;28;20321;-74
2022/04/03 00:06:10;;;;;;;3.40;2.80;;;;;;;;;;4957503;28;20234;-74
2022/04/03 00:08:36;;;;;;;4.33;3.70;;;;;;;;;;4969841;28;20270;-74
2022/04/03 00:11:01;;;;;;;3.87;3.47;;;;;;;;;;4970238;28;20893;-73
2022/04/03 00:13:29;;;;;;;6.00;3.40;;;;;;;;;;4950638;28;20268;-74
2022/04/03 00:15:56;;;;;;;3.30;2.83;;;;;;;;;;4967280;28;20235;-75
2022/04/03 00:18:21;;;;;;;3.40;2.37;;;;;;;;;;4966827;28;20226;-73
2022/04/03 00:20:47;;;;;;;3.73;2.30;;;;;;;;;;4935899;29;20214;-74
2022/04/03 00:23:13;;;;;;;2.77;2.27;;;;;;;;;;4966623;28;20728;-73
2022/04/03 00:25:41;;;;;;;4.17;2.50;;;;;;;;;;4967277;28;20601;-75
2022/04/03 00:28:10;;;;;;;3.10;2.50;;;;;;;;;;4951475;28;20709;-74
2022/04/03 00:30:40;;;;;;;3.43;2.60;;;;;;;;;;4967465;28;20280;-73
2022/04/03 00:33:09;;;;;;;2.60;2.37;;;;;;;;;;4966838;28;20229;-74
2022/04/03 00:35:35;;;;;;;2.80;2.50;;;;;;;;;;4950655;28;20223;-74
2022/04/03 00:38:00;;;;;;;3.53;2.70;;;;;;;;;;4955814;28;20288;-72
2022/04/03 00:40:26;;;;;;;2.87;2.57;;;;;;;;;;4929175;28;20230;-75
2022/04/03 00:42:54;;;;;;;3.53;2.47;;;;;;;;;;4964262;28;20281;-74
2022/04/03 00:45:19;;;;;;;3.57;2.70;;;;;;;;;;4957695;28;20753;-74
2022/04/03 00:47:50;;;;;;;2.30;2.10;;;;;;;;;;4967538;28;20310;-74
2022/04/03 00:50:18;;;;;;;4.53;2.60;;;;;;;;;;4966036;28;20226;-74
2022/04/03 00:52:44;;;;;;;3.07;2.77;;;;;;;;;;4950249;28;20214;-74
2022/04/03 00:55:09;;;;;;;4.30;2.80;;;;;;;;;;4950714;28;20612;-74
2022/04/03 00:57:38;;;;;;;3.77;2.70;;;;;;;;;;4967012;28;20246;-73
2022/04/03 01:00:12;;;;;;;3.67;2.87;;;;;;;;;;4966339;28;20262;-74
2022/04/03 01:02:39;;;;;;;3.30;2.70;;;;;;;;;;4951415;28;20693;-73
2022/04/03 01:05:07;;;;;;;5.90;2.90;;;;;;;;;;4950454;28;20693;-75
2022/04/03 01:07:35;;;;;;;3.47;2.73;;;;;;;;;;4966787;28;20223;-74
2022/04/03 01:10:01;;;;;;;3.43;3.10;;;;;;;;;;4970153;28;20224;-74
2022/04/03 01:12:29;;;;;;;4.17;2.60;;;;;;;;;;4958714;28;20716;-74
2022/04/03 01:14:56;;;;;;;5.27;2.70;;;;;;;;;;4957128;28;20246;-74
2022/04/03 01:17:22;;;;;;;3.17;2.57;;;;;;;;;;4951927;28;20237;-74
2022/04/03 01:19:48;;;;;;;3.70;2.70;;;;;;;;;;4964113;28;20238;-73
2022/04/03 01:22:16;;;;;;;3.53;2.80;;;;;;;;;;4951303;28;20302;-74
2022/04/03 01:24:44;;;;;;;3.33;2.80;;;;;;;;;;4966481;28;20245;-73
2022/04/03 01:27:10;;;;;;;2.50;2.17;;;;;;;;;;4965115;28;20227;-73
2022/04/03 01:29:36;;;;;;;5.73;2.70;;;;;;;;;;4950575;28;20238;-73
2022/04/03 01:32:04;;;;;;;4.03;2.63;;;;;;;;;;4953582;28;20258;-73
2022/04/03 01:34:30;;;;;;;3.23;2.50;;;;;;;;;;4951421;28;20226;-76
2022/04/03 01:36:58;;;;;;;5.17;2.50;;;;;;;;;;4968751;28;20219;-72
2022/04/03 01:39:24;;;;;;;2.43;1.93;;;;;;;;;;4927570;29;20230;-74
2022/04/03 01:41:51;;;;;;;6.70;2.23;;;;;;;;;;4968678;28;20218;-73
2022/04/03 01:44:22;;;;;;;2.83;2.37;;;;;;;;;;4966330;28;20241;-73
2022/04/03 01:46:47;;;;;;;3.80;2.60;;;;;;;;;;4969183;28;20261;-73
2022/04/03 01:49:16;;;;;;;3.23;2.47;;;;;;;;;;4970316;28;20227;-72
2022/04/03 01:51:41;;;;;;;2.53;2.23;;;;;;;;;;4970068;28;20226;-73
2022/04/03 01:54:07;;;;;;;2.67;2.37;;;;;;;;;;4954445;28;20300;-73
2022/04/03 01:56:34;;;;;;;3.43;2.13;;;;;;;;;;4962542;28;20238;-75
2022/04/03 01:59:04;;;;;;;3.37;2.40;;;;;;;;;;4970366;28;20226;-74
2022/04/03 02:01:33;;;;;;;4.00;2.50;;;;;;;;;;4964485;28;20223;-74
2022/04/03 02:04:03;;;;;;;3.30;2.93;;;;;;;;;;4955930;28;20234;-74
2022/04/03 02:06:30;;;;;;;4.17;2.70;;;;;;;;;;4911095;29;20223;-74
2022/04/03 02:08:57;;;;;;;3.37;2.77;;;;;;;;;;4971392;28;20226;-73
2022/04/03 02:11:23;;;;;;;4.80;2.70;;;;;;;;;;4959629;28;20243;-73
2022/04/03 02:13:48;;;;;;;3.50;2.83;;;;;;;;;;4954966;28;20286;-73
2022/04/03 02:16:15;;;;;;;3.20;2.90;;;;;;;;;;4969261;28;20237;-74
2022/04/03 02:18:41;;;;;;;2.73;2.50;;;;;;;;;;4953530;28;20309;-72
2022/04/03 02:21:09;;;;;;;3.30;2.50;;;;;;;;;;4959639;28;20301;-75
2022/04/03 02:23:34;;;;;;;4.23;2.80;;;;;;;;;;4951666;28;20234;-76
2022/04/03 02:26:00;;;;;;;2.70;2.50;;;;;;;;;;4969508;28;20236;-74
2022/04/03 02:28:25;;;;;;;3.13;2.67;;;;;;;;;;4953289;28;20218;-74
2022/04/03 02:30:51;;;;;;;3.20;2.60;;;;;;;;;;4966868;28;20249;-73
2022/04/03 02:33:16;;;;;;;6.83;2.60;;;;;;;;;;4969636;28;20211;-75
2022/04/03 02:35:42;;;;;;;3.73;2.50;;;;;;;;;;4968672;28;20226;-73
2022/04/03 02:38:10;;;;;;;2.50;2.30;;;;;;;;;;4954511;28;20301;-74
2022/04/03 02:40:38;;;;;;;4.67;2.87;;;;;;;;;;4961886;28;20222;-74
2022/04/03 02:43:03;;;;;;;3.17;2.83;;;;;;;;;;4936117;28;20227;-74
2022/04/03 02:45:29;;;;;;;3.60;2.80;;;;;;;;;;4969969;28;20230;-74
2022/04/03 02:47:57;;;;;;;3.73;2.37;;;;;;;;;;4969250;28;20226;-73
2022/04/03 02:50:24;;;;;;;3.03;2.50;;;;;;;;;;4942276;28;20235;-73
2022/04/03 02:53:08;;;;;;;2.30;2.00;;;;;;;;;;5011402;23;20240;-82
2022/04/03 02:55:33;;;;;;;2.80;2.43;;;;;;;;;;5012719;28;20313;-80
2022/04/03 02:57:59;;;;;;;3.93;2.27;;;;;;;;;;5017821;28;20318;-82
2022/04/03 03:00:25;;;;;;;2.73;2.30;;;;;;;;;;5005788;28;20627;-82
2022/04/03 03:02:52;;;;;;;3.57;2.40;;;;;;;;;;4996192;28;20750;-81
2022/04/03 03:08:33;;;;;;;3.20;2.30;;;;;;;;;;4995245;28;20297;-82
2022/04/03 03:10:58;;;;;;;2.83;2.50;;;;;;;;;;5006574;28;20353;-82
2022/04/03 03:13:24;;;;;;;2.40;2.20;;;;;;;;;;5000964;28;20260;-82
2022/04/03 03:15:50;;;;;;;4.13;2.30;;;;;;;;;;5005358;28;20304;-82
2022/04/03 03:18:19;;;;;;;3.53;2.53;;;;;;;;;;4985205;28;20252;-82
2022/04/03 03:20:46;;;;;;;2.50;2.30;;;;;;;;;;4977327;28;20228;-82
2022/04/03 03:23:15;;;;;;;3.53;2.20;;;;;;;;;;4987990;28;20275;-82
2022/04/03 03:25:40;;;;;;;3.07;2.40;;;;;;;;;;4982892;28;20593;-81
2022/04/03 03:28:06;;;;;;;3.23;2.47;;;;;;;;;;5002441;28;20305;-80
2022/04/03 03:30:31;;;;;;;3.27;2.50;;;;;;;;;;4962763;28;20655;-81
2022/04/03 03:33:06;;;;;;;2.53;2.20;;;;;;;;;;4983578;28;20217;-81
2022/04/03 03:35:32;;;;;;;4.87;2.23;;;;;;;;;;5001281;28;20224;-81
2022/04/03 03:37:59;;;;;;;4.37;2.43;;;;;;;;;;5000280;28;20217;-81
2022/04/03 03:40:28;;;;;;;4.40;2.53;;;;;;;;;;5023880;28;20267;-79
2022/04/03 03:42:53;;;;;;;4.23;2.33;;;;;;;;;;5011085;23;20235;-74
2022/04/03 03:45:18;;;;;;;2.87;2.30;;;;;;;;;;5000600;28;20229;-73
2022/04/03 03:47:47;;;;;;;2.93;2.40;;;;;;;;;;5000937;28;20224;-74
2022/04/03 03:50:13;;;;;;;3.70;2.33;;;;;;;;;;4973445;28;20664;-73
2022/04/03 03:52:43;;;;;;;2.53;2.30;;;;;;;;;;4987967;28;20217;-74
2022/04/03 03:55:08;;;;;;;3.57;2.53;;;;;;;;;;4981015;28;20720;-73
2022/04/03 03:57:36;;;;;;;5.47;2.60;;;;;;;;;;4959492;28;20652;-74
2022/04/03 04:00:05;;;;;;;2.70;2.50;;;;;;;;;;4996362;28;20221;-73
2022/04/03 04:02:40;;;;;;;3.00;2.70;;;;;;;;;;4999593;28;20760;-74
2022/04/03 04:05:06;;;;;;;4.10;2.73;;;;;;;;;;4985068;28;20217;-74
2022/04/03 04:07:41;;;;;;;2.87;2.60;;;;;;;;;;4992417;28;20236;-74
2022/04/03 04:10:12;;;;;;;3.10;2.63;;;;;;;;;;4997703;28;20216;-74
2022/04/03 04:12:40;;;;;;;3.53;2.63;;;;;;;;;;4990589;28;20217;-73
2022/04/03 04:15:08;;;;;;;3.70;2.50;;;;;;;;;;4992347;28;20236;-73
2022/04/03 04:17:46;;;;;;;3.23;2.40;;;;;;;;;;4959036;28;20220;-73
2022/04/03 04:20:16;;;;;;;2.57;2.37;;;;;;;;;;4958293;28;20229;-73
2022/04/03 04:22:45;;;;;;;3.23;2.53;;;;;;;;;;4974667;28;20217;-73
2022/04/03 04:25:19;;;;;;;3.83;2.77;;;;;;;;;;4957734;28;20253;-73
2022/04/03 04:27:44;;;;;;;3.00;2.60;;;;;;;;;;4972433;28;20217;-74
2022/04/03 04:30:13;;;;;;;2.57;2.37;;;;;;;;;;4959393;28;20312;-74
2022/04/03 04:32:39;;;;;;;2.80;2.40;;;;;;;;;;4967964;28;20223;-75
2022/04/03 04:35:07;;;;;;;3.50;2.80;;;;;;;;;;4985750;28;20606;-75
2022/04/03 04:37:33;;;;;;;3.17;2.63;;;;;;;;;;4972675;28;20308;-73
2022/04/03 04:40:01;;;;;;;3.00;2.47;;;;;;;;;;4966630;28;20719;-74
2022/04/03 04:42:29;;;;;;;3.40;2.50;;;;;;;;;;5004013;28;20703;-73
2022/04/03 04:44:55;;;;;;;4.47;2.87;;;;;;;;;;4988394;28;20247;-73
2022/04/03 04:47:22;;;;;;;2.90;2.40;;;;;;;;;;4986330;28;20702;-74
2022/04/03 04:49:48;;;;;;;3.20;2.77;;;;;;;;;;4966349;28;20225;-74
2022/04/03 04:52:13;;;;;;;3.73;2.53;;;;;;;;;;4963483;28;20243;-74
2022/04/03 04:54:41;;;;;;;4.10;2.80;;;;;;;;;;4975048;28;20220;-75
2022/04/03 04:57:06;;;;;;;4.17;3.00;;;;;;;;;;4981663;28;20248;-74
2022/04/03 04:59:32;;;;;;;3.60;2.53;;;;;;;;;;5001942;28;20750;-73
2022/04/03 05:01:59;;;;;;;3.80;2.70;;;;;;;;;;4953947;28;20290;-74
2022/04/03 05:04:29;;;;;;;3.23;2.67;;;;;;;;;;4984523;28;20277;-75
2022/04/03 05:06:56;;;;;;;3.00;2.70;;;;;;;;;;4977434;28;20288;-72
2022/04/03 05:09:25;;;;;;;3.53;3.00;;;;;;;;;;4970168;28;20700;-73
2022/04/03 05:11:50;;;;;;;6.03;3.30;;;;;;;;;;4966880;28;20220;-72
2022/04/03 05:14:16;;;;;;;3.57;2.80;;;;;;;;;;4957941;28;20213;-74
2022/04/03 05:16:43;;;;;;;3.43;2.77;;;;;;;;;;4959378;28;20303;-74
2022/04/03 05:19:12;;;;;;;5.23;3.23;;;;;;;;;;4963942;28;20356;-73
2022/04/03 05:21:38;;;;;;;3.63;2.77;;;;;;;;;;4977279;28;20682;-72
2022/04/03 05:24:03;;;;;;;4.20;2.90;;;;;;;;;;4973169;28;20231;-73
2022/04/03 05:26:29;;;;;;;3.80;3.00;;;;;;;;;;4993624;28;20263;-73
2022/04/03 05:29:00;;;;;;;4.43;3.10;;;;;;;;;;4995303;28;20208;-74
2022/04/03 05:31:26;;;;;;;4.03;3.30;;;;;;;;;;4991376;28;20235;-73
2022/04/03 05:33:52;;;;;;;3.50;2.93;;;;;;;;;;4979890;28;20226;-74
2022/04/03 05:36:19;;;;;;;4.50;3.33;;;;;;;;;;4978464;28;20585;-74
2022/04/03 05:38:45;;;;;;;3.20;2.90;;;;;;;;;;4971957;28;20226;-74
2022/04/03 05:41:13;;;;;;;3.90;3.50;;;;;;;;;;4965431;28;20548;-74
2022/04/03 05:43:39;;;;;;;4.40;3.23;;;;;;;;;;4993955;28;20232;-74
2022/04/03 05:46:04;;;;;;;5.13;3.50;;;;;;;;;;4975157;28;20324;-73
2022/04/03 05:48:32;;;;;;;4.70;3.37;;;;;;;;;;4958836;28;20229;-73
2022/04/03 05:51:00;;;;;;;5.23;3.83;;;;;;;;;;4974770;28;20222;-74
2022/04/03 05:53:30;;;;;;;3.63;3.33;;;;;;;;;;4994697;28;20594;-74
2022/04/03 05:55:55;;;;;;;4.83;3.57;;;;;;;;;;4998273;28;20232;-74
2022/04/03 05:58:21;;;;;;;5.70;3.70;;;;;;;;;;4972522;28;20236;-74
2022/04/03 06:00:49;;;;;;;4.43;3.30;;;;;;;;;;4988218;28;20668;-75
2022/04/03 06:03:15;;;;;;;4.70;3.77;;;;;;;;;;4976730;28;20224;-75
2022/04/03 06:05:40;;;;;;;5.50;3.90;;;;;;;;;;4976159;28;20233;-74
2022/04/03 06:08:06;;;;;;;5.03;3.97;;;;;;;;;;4989411;28;20229;-74
2022/04/03 06:10:32;;;;;;;4.03;3.60;;;;;;;;;;4990168;28;20225;-74
2022/04/03 06:13:08;;;;;;;4.43;3.70;;;;;;;;;;4990767;28;20711;-74
2022/04/03 06:15:40;;;;;;;4.60;4.10;;;;;;;;;;5000706;28;20308;-73
2022/04/03 06:18:13;;;;;;;4.33;3.90;;;;;;;;;;4972718;28;20221;-74
2022/04/03 06:20:41;;;;;;;4.70;3.90;;;;;;;;;;4972093;28;20226;-74
2022/04/03 06:23:14;;;;;;;4.40;3.70;;;;;;;;;;4962740;28;20221;-74
2022/04/03 06:25:42;;;;;;;3.67;3.37;;;;;;;;;;4980426;28;20238;-73
2022/04/03 06:28:11;;;;;;;5.10;3.80;;;;;;;;;;4979313;28;20226;-73
2022/04/03 06:30:38;;;;;;;4.90;3.87;;;;;;;;;;4988280;28;20232;-75
2022/04/03 06:33:06;;;;;;;4.77;3.93;;;;;;;;;;4979564;28;20230;-74
2022/04/03 06:35:32;;;;;;;4.03;3.40;;;;;;;;;;4993583;28;20224;-74
2022/04/03 06:38:02;;;;;;;4.03;3.63;;;;;;;;;;4968581;28;20274;-73
2022/04/03 06:40:35;;;;;;;4.90;3.57;;;;;;;;;;4987926;28;20224;-74
2022/04/03 06:43:01;;;;;;;4.23;3.77;;;;;;;;;;4970436;28;20718;-73
2022/04/03 06:45:26;;;;;;;4.23;3.60;;;;;;;;;;4983847;28;20244;-74
2022/04/03 06:47:53;;;;;;;4.80;3.83;;;;;;;;;;4979990;28;20264;-73
2022/04/03 06:50:19;;;;;;;5.53;3.47;;;;;;;;;;4981769;28;20606;-73
2022/04/03 06:52:45;;;;;;;4.47;3.33;;;;;;;;;;4974451;28;20244;-74
2022/04/03 06:55:10;;;;;;;4.13;3.47;;;;;;;;;;5007972;28;20604;-74
2022/04/03 06:57:38;;;;;;;3.50;3.10;;;;;;;;;;4995673;28;20224;-73
2022/04/03 07:00:08;;;;;;;4.27;3.73;;;;;;;;;;4944976;28;20250;-74
2022/04/03 07:02:34;;;;;;;4.87;3.63;;;;;;;;;;4975026;28;20220;-74
2022/04/03 07:05:02;;;;;;;3.87;2.90;;;;;;;;;;4985726;28;20278;-74
2022/04/03 07:07:27;;;;;;;4.17;3.10;;;;;;;;;;4966797;28;20228;-73
2022/04/03 07:09:55;;;;;;;4.53;2.93;;;;;;;;;;5003157;28;20304;-74
2022/04/03 07:12:21;;;;;;;3.97;2.90;;;;;;;;;;4985496;28;20213;-73
2022/04/03 07:14:49;;;;;;;4.63;3.43;;;;;;;;;;4994341;28;20217;-74
2022/04/03 07:17:18;;;;;;;4.00;3.00;;;;;;;;;;4973936;28;20224;-74
2022/04/03 07:19:43;;;;;;;4.90;2.70;;;;;;;;;;4972450;28;20699;-75
2022/04/03 07:22:09;;;;;;;3.37;2.50;;;;;;;;;;5006839;28;20212;-74
2022/04/03 07:24:34;;;;;;;2.93;2.57;;;;;;;;;;4978846;28;20232;-73
2022/04/03 07:27:02;;;;;;;3.33;2.50;;;;;;;;;;4971386;28;20664;-75
2022/04/03 07:29:27;;;;;;;3.70;2.90;;;;;;;;;;5000527;28;20311;-74
2022/04/03 07:31:59;;;;;;;3.50;2.50;;;;;;;;;;5005373;28;20227;-75
2022/04/03 07:34:32;;;;;;;3.20;2.30;;;;;;;;;;4957983;23;20231;-74
2022/04/03 07:37:01;;;;;;;4.57;2.60;;;;;;;;;;5022768;28;20216;-73
2022/04/03 07:39:28;;;;;;;4.25;2.40;;;;;;;;;;5036873;28;20437;-73
2022/04/03 07:41:54;;;;;;;2.70;2.37;;;;;;;;;;5021708;28;20271;-74
2022/04/03 07:44:19;;;;;;;4.00;2.67;;;;;;;;;;5039057;28;20228;-73
2022/04/03 07:46:45;;;;;;;4.30;2.57;;;;;;;;;;5009195;28;20223;-73
2022/04/03 07:49:10;;;;;;;3.40;2.40;;;;;;;;;;5035914;28;20292;-73
2022/04/03 07:51:36;;;;;;;2.70;2.50;;;;;;;;;;5019176;28;20763;-75
2022/04/03 07:54:04;;;;;;;3.50;2.40;;;;;;;;;;5017608;28;20231;-75
2022/04/03 07:56:32;;;;;;;2.40;2.20;;;;;;;;;;5008465;28;20644;-78
2022/04/03 07:58:58;;;;;;;3.67;2.27;;;;;;;;;;5012327;28;20686;-75
2022/04/03 08:01:27;;;;;;;3.67;2.70;;;;;;;;;;5000030;28;20221;-75
2022/04/03 08:03:53;;;;;;;2.57;2.17;;;;;;;;;;5020119;28;20622;-75
2022/04/03 08:06:19;;;;;;;3.83;2.53;;;;;;;;;;4998957;28;20225;-74
2022/04/03 08:08:46;;;;;;;3.60;2.53;;;;;;;;;;5031107;28;20220;-74
2022/04/03 08:11:12;;;;;;;4.60;2.57;;;;;;;;;;5013225;28;20289;-75
2022/04/03 08:13:38;;;;;;;3.10;2.20;;;;;;;;;;4982926;28;20229;-74
2022/04/03 08:16:04;;;;;;;3.47;2.40;;;;;;;;;;5011683;28;20228;-73
2022/04/03 08:18:29;;;;;;;2.80;2.10;;;;;;;;;;4994953;28;20240;-73
2022/04/03 08:20:55;;;;;;;4.47;2.23;;;;;;;;;;5010989;28;20725;-74
2022/04/03 08:23:22;;;;;;;4.87;2.57;;;;;;;;;;5012335;28;20275;-74
2022/04/03 08:25:50;;;;;;;2.93;2.10;;;;;;;;;;5031810;28;20712;-74
2022/04/03 08:28:17;;;;;;;4.53;2.27;;;;;;;;;;4998854;28;20316;-75
2022/04/03 08:30:42;;;;;;;3.93;2.00;;;;;;;;;;5028157;28;20221;-77
2022/04/03 08:33:11;;;;;;;4.60;2.30;;;;;;;;;;5021705;28;20290;-74
2022/04/03 08:35:38;;;;;;;3.30;2.47;;;;;;;;;;5016076;28;20220;-74
2022/04/03 08:38:05;;;;;;;4.37;2.50;;;;;;;;;;4994793;28;20228;-77
2022/04/03 08:40:31;;;;;;;3.77;2.80;;;;;;;;;;5037584;28;20239;-74
2022/04/03 08:43:00;;;;;;;2.70;2.20;;;;;;;;;;5004730;28;20223;-73
2022/04/03 08:45:25;;;;;;;3.87;2.33;;;;;;;;;;5031520;28;20231;-74
2022/04/03 08:47:59;;;;;;;5.27;2.20;;;;;;;;;;5015097;28;20221;-73
2022/04/03 08:50:34;;;;;;;5.17;2.43;;;;;;;;;;5012555;28;20219;-73
2022/04/03 08:53:04;;;;;;;3.70;2.30;;;;;;;;;;4986732;28;20216;-74
2022/04/03 08:55:38;;;;;;;3.03;2.73;;;;;;;;;;5000998;28;20229;-75
2022/04/03 08:58:07;;;;;;;4.90;2.97;;;;;;;;;;5013486;28;20234;-74
2022/04/03 09:00:37;;;;;;;4.30;2.50;;;;;;;;;;5022889;28;20217;-74
2022/04/03 09:03:03;;;;;;;7.23;3.00;;;;;;;;;;5036263;28;20226;-76
2022/04/03 09:05:37;;;;;;;5.13;2.63;;;;;;;;;;5023477;28;20232;-75
2022/04/03 09:08:05;;;;;;;3.00;2.70;;;;;;;;;;5023245;28;20227;-75
2022/04/03 09:10:30;;;;;;;6.97;2.97;;;;;;;;;;5020673;28;20250;-75
2022/04/03 09:12:56;;;;;;;4.80;2.93;;;;;;;;;;5007265;28;20244;-75
2022/04/03 09:15:23;;;;;;;5.37;3.10;;;;;;;;;;4988061;28;20224;-73
2022/04/03 09:18:09;;;;;;;3.90;2.60;;;;;;;;;;5010973;28;20604;-76
2022/04/03 09:20:41;;;;;;;4.73;3.53;;;;;;;;;;4990016;28;20227;-75
2022/04/03 09:23:11;;;;;;;5.03;3.20;;;;;;;;;;5012131;28;20308;-74
2022/04/03 09:25:41;;;;;;;5.77;3.47;;;;;;;;;;5011838;28;20248;-74
2022/04/03 09:28:11;;;;;;;4.97;3.60;;;;;;;;;;5019715;28;20244;-73
2022/04/03 09:30:46;;;;;;;6.57;4.93;;;;;;;;;;5030651;28;20707;-76
2022/04/03 09:33:15;;;;;;;5.53;4.13;;;;;;;;;;5002976;28;20224;-74
2022/04/03 09:36:01;;;;;;;4.23;2.90;;;;;;;;;;5013755;28;20229;-73
2022/04/03 09:38:29;;;;;;;4.60;2.93;;;;;;;;;;5014795;28;20227;-74
2022/04/03 09:41:02;;;;;;;4.60;3.00;;;;;;;;;;5004094;28;20224;-74
2022/04/03 09:43:35;;;;;;;3.93;2.97;;;;;;;;;;5038094;28;20241;-74
2022/04/03 09:46:09;;;;;;;3.63;2.50;;;;;;;;;;4993379;28;20263;-75
2022/04/03 09:48:43;;;;;;;3.77;2.37;;;;;;;;;;5014570;28;20224;-75
2022/04/03 09:51:13;;;;;;;3.23;2.40;;;;;;;;;;4995794;28;20308;-74
2022/04/03 09:53:49;;;;;;;3.63;2.20;;;;;;;;;;5000279;28;20691;-75
2022/04/03 09:56:37;;;;;;;2.67;2.00;;;;;;;;;;4997661;28;20217;-74
2022/04/03 09:59:09;;;;;;;4.10;2.10;;;;;;;;;;5001896;28;20225;-74
2022/04/03 10:01:39;;;;;;;3.20;2.30;;;;;;;;;;4981708;28;20680;-75
2022/04/03 10:04:14;;;;;;;5.63;2.10;;;;;;;;;;5004529;28;20256;-75
2022/04/03 10:06:39;;;;;;;3.07;1.90;;;;;;;;;;5004440;28;20221;-75
2022/04/03 10:09:07;;;;;;;5.37;2.20;;;;;;;;;;4982313;28;22108;-74
2022/04/03 10:11:35;;;;;;;4.17;2.00;;;;;;;;;;4992538;28;20221;-75
2022/04/03 10:14:03;;;;;;;4.67;2.00;;;;;;;;;;4976398;28;20214;-75
2022/04/03 10:16:29;;;;;;;3.93;2.17;;;;;;;;;;4979997;28;20354;-75
2022/04/03 10:18:54;;;;;;;3.90;2.00;;;;;;;;;;4999375;28;20722;-74
2022/04/03 10:21:48;;;;;;;4.30;1.80;;;;;;;;;;4996475;28;20225;-75
2022/04/03 10:24:20;;;;;;;3.60;2.07;;;;;;;;;;5015590;28;20229;-74
2022/04/03 10:26:56;;;;;;;3.27;1.90;;;;;;;;;;5011159;28;20225;-73
2022/04/03 10:29:29;;;;;;;3.60;2.20;;;;;;;;;;4993057;28;20218;-75
2022/04/03 10:32:03;;;;;;;3.97;2.40;;;;;;;;;;5029911;28;20218;-75
2022/04/03 10:34:29;;;;;;;2.93;2.10;;;;;;;;;;4991589;28;20221;-75
2022/04/03 10:36:57;;;;;;;3.63;2.40;;;;;;;;;;5005646;28;20229;-75
2022/04/03 10:39:24;;;;;;;5.37;4.60;;;;;;;;;;5005402;28;20230;-74
2022/04/03 10:41:51;;;;;;;3.87;2.60;;;;;;;;;;4974478;28;20292;-73
2022/04/03 10:44:23;;;;;;;3.70;1.87;;;;;;;;;;4985979;28;20230;-76
2022/04/03 10:47:05;;;;;;;5.10;2.53;;;;;;;;;;4977188;28;20287;-77
2022/04/03 10:53:00;;;;;;;2.53;1.57;;;;;;;;;;5016227;23;20235;-79
2022/04/03 10:56:09;;;;;;;2.70;1.77;;;;;;;;;;5038890;28;20224;-81
2022/04/03 11:02:16;;;;;;;7.40;2.70;;;;;;;;;;5032339;28;20226;-81
2022/04/03 11:04:41;;;;;;;5.97;3.03;;;;;;;;;;5009744;28;20362;-82
2022/04/03 11:07:18;;;;;;;3.53;2.13;;;;;;;;;;5003313;28;20768;-82
2022/04/03 11:09:46;;;;;;;4.17;3.03;;;;;;;;;;4992604;28;20255;-81
2022/04/03 11:12:12;;;;;;;4.30;2.13;;;;;;;;;;5007591;28;20216;-82
2022/04/03 11:14:55;;;;;;;2.13;1.60;;;;;;;;;;5031027;28;20315;-84
2022/04/03 11:18:14;;;;;;;2.20;1.70;;;;;;;;;;5017278;28;20220;-83
2022/04/03 11:20:42;;;;;;;1.97;1.70;;;;;;;;;;5023737;28;20390;-84
2022/04/03 11:23:41;;;;;;;1.60;1.40;;;;;;;;;;5054607;28;20231;-81
2022/04/03 11:26:09;;;;;;;3.33;1.70;;;;;;;;;;4992151;28;20213;-85
2022/04/03 11:28:43;;;;;;;5.03;3.10;;;;;;;;;;4999648;28;20293;-84
2022/04/03 11:31:16;;;;;;;2.93;1.80;;;;;;;;;;5037476;28;20219;-82
2022/04/03 11:33:42;;;;;;;2.50;1.60;;;;;;;;;;5036423;28;20213;-81
2022/04/03 11:39:40;;;;;;;1.23;1.00;;;;;;;;;;5015764;28;20226;-81
2022/04/03 11:42:08;;;;;;;2.27;1.20;;;;;;;;;;5018286;28;20228;-79
2022/04/03 11:44:37;;;;;;;3.20;1.20;;;;;;;;;;5040363;28;20279;-80
2022/04/03 11:47:06;;;;;;;1.67;0.90;;;;;;;;;;4998446;28;20223;-82
2022/04/03 11:49:31;;;;;;;3.27;1.00;;;;;;;;;;5008780;28;20234;-81
2022/04/03 11:52:08;;;;;;;4.90;1.20;;;;;;;;;;5036710;28;20231;-82
2022/04/03 11:54:34;;;;;;;2.07;1.37;;;;;;;;;;5024119;28;20686;-84
2022/04/03 11:57:01;;;;;;;2.50;1.00;;;;;;;;;;5017162;28;20219;-80
2022/04/03 11:59:39;;;;;;;3.38;1.17;;;;;;;;;;5045812;28;20430;-85
2022/04/03 12:02:25;;;;;;;3.13;0.93;;;;;;;;;;5005226;28;20236;-82
2022/04/03 12:05:12;;;;;;;1.93;1.00;;;;;;;;;;5034006;28;20243;-84
2022/04/03 12:07:40;;;;;;;2.23;1.00;;;;;;;;;;5010646;28;20928;-80
2022/04/03 12:10:05;;;;;;;1.43;0.90;;;;;;;;;;5004581;28;20528;-79
2022/04/03 12:12:33;;;;;;;1.63;0.80;;;;;;;;;;5005146;28;20228;-81
2022/04/03 12:15:24;;;;;;;2.20;0.80;;;;;;;;;;5011564;28;20197;-81
2022/04/03 12:17:56;;;;;;;1.00;0.77;;;;;;;;;;5035403;28;20275;-81
2022/04/03 12:20:24;;;;;;;0.50;0.50;;;;;;;;;;5010750;28;20212;-82
2022/04/03 12:22:59;;;;;;;2.37;1.00;;;;;;;;;;5007454;28;20314;-84
2022/04/03 12:25:25;;;;;;;2.23;1.20;;;;;;;;;;5016813;28;20262;-83
2022/04/03 12:27:57;;;;;;;1.67;1.10;;;;;;;;;;5033275;28;20283;-80
2022/04/03 12:30:22;;;;;;;0.80;0.70;;;;;;;;;;5038306;28;20228;-83
2022/04/03 12:32:48;;;;;;;2.67;1.67;;;;;;;;;;5029132;28;20792;-81
2022/04/03 12:35:13;;;;;;;3.37;2.50;;;;;;;;;;5031524;28;20538;-83
2022/04/03 12:37:42;;;;;;;2.47;1.83;;;;;;;;;;5004373;28;20213;-82
2022/04/03 12:40:15;;;;;;;2.33;1.20;;;;;;;;;;5006274;28;20227;-82
2022/04/03 12:42:41;;;;;;;3.73;1.07;;;;;;;;;;5012160;22;20283;-74
2022/04/03 12:45:12;;;;;;;2.27;1.40;;;;;;;;;;4985839;28;20241;-75
2022/04/03 12:47:45;;;;;;;2.63;1.30;;;;;;;;;;4989432;28;20316;-74
2022/04/03 12:50:12;;;;;;;2.90;1.67;;;;;;;;;;5000379;28;20217;-75
2022/04/03 12:52:42;;;;;;;2.50;1.30;;;;;;;;;;4994511;28;20379;-78
2022/04/03 12:55:41;;;;;;;3.90;1.63;;;;;;;;;;4990288;28;20308;-77
2022/04/03 13:01:18;;;;;;;3.53;1.20;;;;;;;;;;4988722;28;20220;-76
2022/04/03 13:03:51;;;;;;;2.47;1.10;;;;;;;;;;4986436;28;20234;-76
2022/04/03 13:06:28;;;;;;;5.10;1.43;;;;;;;;;;4976844;28;20221;-75
2022/04/03 13:08:58;;;;;;;1.43;1.00;;;;;;;;;;4993841;28;20242;-75
2022/04/03 13:11:37;;;;;;;2.57;1.27;;;;;;;;;;4977441;28;20212;-77
2022/04/03 13:14:12;;;;;;;2.60;1.20;;;;;;;;;;4987188;28;20224;-78
2022/04/03 13:16:41;;;;;;;2.93;1.60;;;;;;;;;;4987916;28;20574;-76
2022/04/03 13:19:07;;;;;;;1.83;1.67;;;;;;;;;;4983741;28;20221;-74
2022/04/03 13:21:35;;;;;;;1.17;1.00;;;;;;;;;;4976197;28;20224;-76
2022/04/03 13:24:02;;;;;;;2.77;1.10;;;;;;;;;;4984219;28;20243;-75
2022/04/03 13:26:27;;;;;;;1.60;0.80;;;;;;;;;;4983164;28;20240;-76
2022/04/03 13:28:53;;;;;;;1.87;1.10;;;;;;;;;;4999169;28;20217;-75
2022/04/03 13:31:21;;;;;;;1.83;1.00;;;;;;;;;;4989927;28;20699;-76
2022/04/03 13:34:06;;;;;;;1.37;0.90;;;;;;;;;;4976543;28;20718;-76
2022/04/03 13:36:33;;;;;;;2.57;1.23;;;;;;;;;;4984116;28;20221;-76
2022/04/03 13:39:07;;;;;;;3.43;1.17;;;;;;;;;;4996730;28;20226;-76
2022/04/03 13:41:38;;;;;;;3.10;1.60;;;;;;;;;;4991346;28;20221;-78
2022/04/03 13:44:04;;;;;;;3.77;1.50;;;;;;;;;;4974805;28;20317;-74
2022/04/03 13:46:29;;;;;;;1.60;1.17;;;;;;;;;;4990528;28;20233;-75
2022/04/03 13:48:57;;;;;;;1.03;0.80;;;;;;;;;;4990004;28;20226;-76
2022/04/03 13:51:23;;;;;;;3.20;0.80;;;;;;;;;;4976085;28;20309;-76
2022/04/03 13:53:48;;;;;;;2.37;0.53;;;;;;;;;;4976798;28;20256;-76
2022/04/03 13:56:19;;;;;;;2.23;0.90;;;;;;;;;;4985933;28;20715;-74
2022/04/03 13:59:03;;;;;;;1.87;0.80;;;;;;;;;;4983861;28;20218;-74
2022/04/03 14:01:33;;;;;;;1.73;1.10;;;;;;;;;;5002475;23;20315;-80
2022/04/03 14:04:19;;;;;;;2.43;1.10;;;;;;;;;;5023286;28;20233;-81
2022/04/03 14:06:54;;;;;;;3.83;0.97;;;;;;;;;;5041190;28;20265;-80
2022/04/03 14:09:20;;;;;;;3.20;1.57;;;;;;;;;;5035139;28;20220;-79
2022/04/03 14:11:48;;;;;;;3.90;2.37;;;;;;;;;;5049021;28;20224;-80
2022/04/03 14:14:14;;;;;;;1.57;1.37;;;;;;;;;;5015208;28;20233;-82
2022/04/03 14:16:40;;;;;;;6.47;3.13;;;;;;;;;;5027481;28;20233;-80
2022/04/03 14:19:05;;;;;;;3.60;1.73;;;;;;;;;;5048023;28;20239;-80
2022/04/03 14:21:33;;;;;;;2.73;1.67;;;;;;;;;;5035512;28;20237;-80
2022/04/03 14:23:59;;;;;;;3.13;1.23;;;;;;;;;;5020253;28;20213;-81
2022/04/03 14:26:25;;;;;;;2.70;1.37;;;;;;;;;;5017930;28;21257;-82
2022/04/03 14:28:51;;;;;;;2.43;1.20;;;;;;;;;;5036518;28;20225;-81
2022/04/03 14:31:16;;;;;;;3.63;1.23;;;;;;;;;;5029557;28;20288;-81
2022/04/03 14:33:42;;;;;;;3.40;1.40;;;;;;;;;;5043173;22;20235;-75
2022/04/03 14:36:09;;;;;;;2.10;1.90;;;;;;;;;;5012196;28;20706;-75
2022/04/03 14:38:34;;;;;;;2.77;1.20;;;;;;;;;;5001633;28;20251;-75
2022/04/03 14:41:00;;;;;;;2.57;1.50;;;;;;;;;;5001194;28;20712;-74
2022/04/03 14:43:26;;;;;;;3.37;2.10;;;;;;;;;;5011161;28;20678;-73
2022/04/03 14:45:51;;;;;;;2.00;1.77;;;;;;;;;;5001532;28;20235;-75
2022/04/03 14:48:19;;;;;;;3.10;2.00;;;;;;;;;;5016499;28;20217;-74
2022/04/03 14:50:45;;;;;;;4.60;2.13;;;;;;;;;;5012020;28;20228;-74
2022/04/03 14:53:13;;;;;;;4.03;1.90;;;;;;;;;;5013933;28;20353;-74
2022/04/03 14:55:43;;;;;;;2.17;1.83;;;;;;;;;;5016867;28;20309;-74
2022/04/03 14:58:08;;;;;;;3.13;2.00;;;;;;;;;;5018941;28;20286;-75
2022/04/03 15:00:34;;;;;;;6.43;3.00;;;;;;;;;;5015030;28;20832;-75
2022/04/03 15:03:00;;;;;;;3.53;2.50;;;;;;;;;;5023036;28;20585;-73
2022/04/03 15:05:25;;;;;;;2.77;1.50;;;;;;;;;;5029563;28;20287;-76
2022/04/03 15:07:51;;;;;;;3.23;1.50;;;;;;;;;;5008502;28;20212;-75
2022/04/03 15:10:22;;;;;;;4.73;2.37;;;;;;;;;;5003664;28;20212;-72